3 – eServices

Baggage tracing
Cargo tracing
Weather
  • METAR

    EFMA 200620Z AUTO 13008KT 100V160 9999 OVC014 M00/M03 Q1005

    EFTU 200620Z AUTO 13011KT 9999 OVC010 M04/M06 Q1008

    EFHK 200620Z 12006KT CAVOK M07/M09 Q1010 NOSIG

    ESSA 200620Z 12010KT 7000 BR SCT013 BKN017 OVC059 00/M01 Q1002 R19L/29//76 R08/650257 TEMPO 2500 OVC004

    ESSB 200620Z 11010KT 4700 DZ OVC005 01/01 Q1002 R12/690160

  • TAF n/a

Flightradar24